Time;durP1;ratioP1;P1;durP2;ratioP2;P2;SDS_P1;SDS_P2;PMS_P1;PMS_P2;Temp;Humidity;BMP_temperature;BMP_pressure;BME280_temperature;BME280_humidity;BME280_pressure;Samples;Min_cycle;Max_cycle;Signal;HPM_P1;HPM_P2
2024/04/19 00:00:23;;;;;;;7.10;5.20;;;6.60;99.90;;;-141.84;73.41;19330.16;5429908;26;20291;-59
2024/04/19 00:02:53;;;;;;;5.07;4.67;;;6.60;99.90;;;-141.84;72.67;19289.53;5422160;26;20262;-58
2024/04/19 00:05:21;;;;;;;6.53;4.63;;;6.60;99.90;;;-141.84;70.36;19049.75;5415659;26;20262;-58
2024/04/19 00:07:51;;;;;;;5.30;4.80;;;6.70;99.90;;;-141.84;71.42;19155.41;5427145;26;20785;-63
2024/04/19 00:10:18;;;;;;;6.30;5.70;;;6.70;99.90;;;-141.84;72.46;19206.22;5429137;26;20339;-59
2024/04/19 00:12:48;;;;;;;6.20;5.30;;;6.70;99.90;;;-141.84;72.20;19183.84;5430606;26;20219;-59
2024/04/19 00:15:16;;;;;;;5.67;5.10;;;6.70;99.90;;;-141.84;72.15;19210.28;5412244;26;20309;-59
2024/04/19 00:17:48;;;;;;;6.10;5.50;;;6.70;99.90;;;-141.84;72.29;19167.59;5413110;26;20262;-59
2024/04/19 00:20:17;;;;;;;6.27;5.67;;;6.70;99.90;;;-141.84;71.85;19169.63;5422941;26;20647;-60
2024/04/19 00:22:47;;;;;;;6.23;5.63;;;6.70;99.90;;;-141.84;72.17;19165.56;5414349;26;20259;-59
2024/04/19 00:25:14;;;;;;;6.87;4.90;;;6.70;99.90;;;-141.84;72.13;19198.09;5447778;26;20242;-63
2024/04/19 00:27:44;;;;;;;5.63;5.03;;;6.70;99.90;;;-141.84;71.41;19114.78;5449068;26;20226;-60
2024/04/19 00:30:12;;;;;;;5.90;4.03;;;6.70;99.90;;;-141.84;70.80;19088.34;5449781;26;20300;-59
2024/04/19 00:32:42;;;;;;;6.13;4.00;;;6.70;99.90;;;-141.84;70.90;19098.50;5449903;26;20302;-59
2024/04/19 00:35:12;;;;;;;4.03;3.70;;;6.70;99.90;;;-141.84;69.88;19035.53;5457529;26;20292;-59
2024/04/19 00:37:42;;;;;;;4.67;3.67;;;6.70;99.90;;;-141.84;70.19;19043.66;5449919;26;20250;-61
2024/04/19 00:40:10;;;;;;;5.93;4.10;;;6.70;99.90;;;-141.84;70.27;19061.94;5449255;26;20342;-59
2024/04/19 00:42:40;;;;;;;5.20;4.00;;;6.70;99.90;;;-141.84;70.27;19084.28;5452748;26;20266;-59
2024/04/19 00:45:31;;;;;;;3.70;3.40;;;6.70;99.90;;;-141.84;69.71;19031.47;5449454;26;20258;-59
2024/04/19 00:48:04;;;;;;;5.23;4.03;;;6.70;99.90;;;-141.84;69.51;19078.19;5444947;26;20254;-59
2024/04/19 00:50:36;;;;;;;5.37;3.60;;;6.80;99.90;;;-141.84;66.82;19033.50;5448659;26;20264;-60
2024/04/19 00:53:07;;;;;;;4.73;4.00;;;6.80;99.90;;;-141.84;68.54;19023.34;5448510;26;20250;-61
2024/04/19 00:55:35;;;;;;;4.27;3.87;;;6.80;99.90;;;-141.84;68.73;19066.00;5463102;26;20261;-61
2024/04/19 00:58:06;;;;;;;5.13;3.87;;;6.80;99.90;;;-141.84;68.83;19049.75;5449401;26;20269;-60
2024/04/19 01:00:34;;;;;;;5.80;3.60;;;6.80;99.90;;;-141.84;67.16;19041.63;5449079;26;20292;-59
2024/04/19 01:03:05;;;;;;;4.20;3.30;;;6.80;99.90;;;-141.84;66.95;19041.63;5449864;26;20292;-60
2024/04/19 01:05:35;;;;;;;5.43;3.70;;;6.70;99.90;;;-141.84;67.51;19047.72;5452631;26;20258;-59
2024/04/19 01:08:06;;;;;;;4.37;3.93;;;6.80;99.90;;;-141.84;67.08;19055.84;5449780;26;20341;-59
2024/04/19 01:10:35;;;;;;;4.23;3.77;;;6.80;99.90;;;-141.84;68.30;19029.44;5448016;26;20646;-59
2024/04/19 01:13:06;;;;;;;5.43;3.83;;;6.70;99.90;;;-141.84;68.08;19049.75;5449543;26;20272;-59
2024/04/19 01:15:36;;;;;;;3.53;3.23;;;6.70;99.90;;;-141.84;67.24;19023.34;5448665;26;20326;-58
2024/04/19 01:18:07;;;;;;;5.73;3.60;;;6.70;99.90;;;-141.84;68.64;19047.72;5448789;26;20249;-58
2024/04/19 01:20:38;;;;;;;3.70;3.40;;;6.70;99.90;;;-141.84;68.83;19031.47;5447537;26;20253;-58
2024/04/19 01:23:09;;;;;;;4.03;3.50;;;6.70;99.90;;;-141.84;68.99;19061.94;5448458;26;20249;-58
2024/04/19 01:25:37;;;;;;;6.83;4.43;;;6.70;99.90;;;-141.84;69.67;19059.91;5455354;26;20257;-58
2024/04/19 01:28:13;;;;;;;5.03;4.03;;;6.70;99.90;;;-141.84;68.03;19031.47;5449528;26;20222;-58
2024/04/19 01:30:43;;;;;;;5.00;4.50;;;6.70;99.90;;;-141.84;67.91;19045.69;5448488;26;20237;-59
2024/04/19 01:33:14;;;;;;;6.43;4.57;;;6.70;99.90;;;-141.84;67.36;19037.56;5452579;26;20253;-58
2024/04/19 01:35:42;;;;;;;4.60;4.13;;;6.70;99.90;;;-141.84;66.05;19053.81;5454164;26;20637;-59
2024/04/19 01:38:13;;;;;;;5.90;4.10;;;6.70;99.90;;;-141.84;65.09;19033.50;5460296;26;20286;-59
2024/04/19 01:40:41;;;;;;;4.10;3.70;;;6.80;99.90;;;-141.84;66.15;19027.41;5472500;26;20725;-60
2024/04/19 01:43:13;;;;;;;5.33;4.13;;;6.80;99.90;;;-141.84;65.15;19029.44;5442319;26;20273;-59
2024/04/19 01:45:41;;;;;;;4.40;4.00;;;6.70;99.90;;;-141.84;65.57;19055.84;5448740;26;20238;-58
2024/04/19 01:48:12;;;;;;;5.93;4.50;;;6.70;99.90;;;-141.84;63.60;19057.88;5461096;26;20724;-59
2024/04/19 01:50:42;;;;;;;4.93;4.43;;;6.70;99.90;;;-141.84;64.06;19033.50;5450744;26;20292;-60
2024/04/19 01:53:10;;;;;;;4.67;3.97;;;6.80;99.90;;;-141.84;64.78;19033.50;5466895;26;20662;-60
2024/04/19 01:55:40;;;;;;;5.13;3.53;;;6.60;99.90;;;-141.84;64.89;19041.63;5457875;26;20241;-59
2024/04/19 01:58:10;;;;;;;4.33;3.80;;;6.70;99.90;;;-141.84;64.74;19021.31;5469000;26;20221;-58
2024/04/19 02:00:40;;;;;;;4.17;3.40;;;6.60;99.90;;;-141.84;63.04;19037.56;5465201;26;20339;-59
2024/04/19 02:03:07;;;;;;;3.73;3.20;;;6.70;99.90;;;-141.84;64.20;19049.75;5451107;26;20250;-60
2024/04/19 02:05:37;;;;;;;6.43;3.80;;;6.60;99.90;;;-141.84;64.90;19076.16;5449216;26;20249;-60
2024/04/19 02:08:06;;;;;;;4.77;3.60;;;6.60;99.90;;;-141.84;63.87;19013.16;5448833;26;20265;-59
2024/04/19 02:10:38;;;;;;;3.67;3.23;;;6.60;99.90;;;-141.84;63.14;19007.06;5467287;26;20264;-59
2024/04/19 02:13:05;;;;;;;4.77;3.13;;;6.60;99.90;;;-141.84;63.41;18994.88;5460010;26;20233;-59
2024/04/19 02:15:38;;;;;;;4.10;2.90;;;6.60;99.90;;;-141.84;65.11;19017.25;5467684;26;20355;-58
2024/04/19 02:18:09;;;;;;;3.13;2.83;;;6.50;99.90;;;-141.84;65.16;19025.38;5448207;26;20288;-58
2024/04/19 02:20:36;;;;;;;3.47;3.10;;;6.50;99.90;;;-141.84;62.06;19023.34;5447640;26;20291;-59
2024/04/19 02:23:06;;;;;;;6.37;3.50;;;6.60;99.90;;;-141.84;62.44;19057.88;5448770;26;20249;-59
2024/04/19 02:25:34;;;;;;;4.97;3.40;;;6.60;99.90;;;-141.84;62.81;19043.66;5451323;26;20234;-59
2024/04/19 02:30:59;;;;;;;3.73;2.90;;;6.70;99.90;;;-141.84;61.53;19055.84;5443036;26;20414;-59
2024/04/19 02:33:30;;;;;;;3.57;3.07;;;6.70;99.90;;;-141.84;61.55;19045.69;5463609;26;20291;-59
2024/04/19 02:36:01;;;;;;;3.27;2.97;;;6.70;99.90;;;-141.84;61.06;19063.97;5460122;26;20370;-60
2024/04/19 02:38:31;;;;;;;5.03;3.30;;;6.70;99.90;;;-141.84;61.99;19055.84;5447567;26;20714;-59
2024/04/19 02:41:01;;;;;;;3.23;2.77;;;6.80;99.90;;;-141.84;60.28;19041.63;5458735;26;20283;-59
2024/04/19 02:43:31;;;;;;;3.20;2.83;;;6.70;99.90;;;-141.84;61.57;19025.38;5455781;26;20842;-59
2024/04/19 02:46:07;;;;;;;3.77;2.93;;;6.80;99.90;;;-141.84;59.22;19080.22;5455050;26;20226;-59
2024/04/19 02:48:38;;;;;;;4.47;2.67;;;6.80;99.90;;;-141.84;59.67;19100.53;5453457;26;20268;-60
2024/04/19 02:51:08;;;;;;;2.70;2.50;;;6.90;99.90;;;-141.84;59.38;19057.88;5477041;26;20252;-58
2024/04/19 02:53:38;;;;;;;4.57;2.57;;;6.90;99.90;;;-141.84;59.64;19074.13;5449176;26;20257;-59
2024/04/19 02:56:08;;;;;;;5.17;2.80;;;6.90;99.90;;;-141.84;59.22;19076.16;5458022;26;20290;-59
2024/04/19 02:58:38;;;;;;;3.20;2.90;;;6.90;99.90;;;-141.84;58.59;19068.03;5447698;26;20764;-59
2024/04/19 03:01:11;;;;;;;3.10;2.80;;;7.00;99.90;;;-141.84;58.38;19092.41;5447243;26;20264;-59
2024/04/19 03:03:41;;;;;;;3.67;2.40;;;7.00;99.90;;;-141.84;57.78;19086.31;5443070;26;20313;-59
2024/04/19 03:06:11;;;;;;;3.03;2.43;;;7.00;99.90;;;-141.84;57.95;19084.28;5453383;26;20630;-58
2024/04/19 03:08:43;;;;;;;2.30;2.10;;;7.00;99.90;;;-141.84;58.99;19055.84;5436054;26;20307;-59
2024/04/19 03:11:13;;;;;;;4.97;2.50;;;7.00;99.90;;;-141.84;57.33;19080.22;5451363;26;20590;-59
2024/04/19 03:13:43;;;;;;;3.00;2.40;;;7.00;99.90;;;-141.84;57.80;19072.09;5447051;26;20316;-58
2024/04/19 03:16:16;;;;;;;2.93;2.40;;;7.10;99.90;;;-141.84;57.53;19104.59;5452982;26;20326;-58
2024/04/19 03:18:46;;;;;;;2.77;2.57;;;7.00;99.90;;;-141.84;56.96;19104.59;5447413;26;20621;-58
2024/04/19 03:21:17;;;;;;;4.93;2.70;;;7.10;99.90;;;-141.84;57.38;19086.31;5457342;26;20252;-59
2024/04/19 03:23:47;;;;;;;4.40;2.37;;;7.10;99.90;;;-141.84;57.55;19092.41;5452045;26;20297;-58
2024/04/19 03:26:17;;;;;;;5.30;2.47;;;7.10;99.90;;;-141.84;57.28;19090.38;5451643;26;20284;-59
2024/04/19 03:28:47;;;;;;;2.73;2.30;;;7.00;99.90;;;-141.84;57.85;19096.47;5451490;26;20769;-60
2024/04/19 03:31:20;;;;;;;3.60;2.50;;;7.00;99.90;;;-141.84;57.21;19124.94;5462102;26;20332;-63
2024/04/19 03:33:49;;;;;;;2.40;2.20;;;7.10;99.90;;;-141.84;56.37;19110.72;5470407;26;20225;-59
2024/04/19 03:36:20;;;;;;;2.87;2.13;;;7.10;99.90;;;-141.84;57.01;19110.72;5458030;26;21005;-59
2024/04/19 03:38:50;;;;;;;4.20;2.50;;;7.10;99.90;;;-141.84;57.55;19116.81;5450424;26;20249;-59
2024/04/19 03:41:20;;;;;;;4.13;2.60;;;7.10;99.90;;;-141.84;57.25;19094.44;5446597;26;20294;-59
2024/04/19 03:45:40;;;;;;;2.50;2.30;;;7.30;99.90;;;-141.84;56.91;19088.34;5453502;26;20585;-60
2024/04/19 03:46:46;;;;;;;3.27;2.57;;;7.10;99.90;;;-141.84;56.25;19126.97;5448385;26;20249;-59
2024/04/19 03:49:16;;;;;;;4.00;2.50;;;7.20;99.90;;;-141.84;57.20;19102.56;5470630;26;20240;-58
2024/04/19 03:51:46;;;;;;;5.07;2.70;;;7.20;99.90;;;-141.84;56.77;19102.56;5463110;26;20240;-59
2024/04/19 03:54:16;;;;;;;4.23;2.87;;;7.20;99.90;;;-141.84;56.09;19090.38;5470494;26;20295;-58
2024/04/19 03:56:46;;;;;;;2.93;2.43;;;7.20;99.90;;;-141.84;56.44;19084.28;5451623;26;20985;-59
2024/04/19 03:59:16;;;;;;;2.97;2.67;;;7.20;99.90;;;-141.84;56.50;19126.97;5457772;26;20261;-60
2024/04/19 04:01:50;;;;;;;3.53;2.90;;;7.20;99.90;;;-141.84;56.62;19141.19;5467048;26;20252;-59
2024/04/19 04:04:20;;;;;;;5.87;2.80;;;7.20;99.90;;;-141.84;56.79;19100.53;5450349;26;20576;-59
2024/04/19 04:06:50;;;;;;;3.90;2.90;;;7.20;99.90;;;-141.84;55.97;19096.47;5474764;26;20287;-60
2024/04/19 04:09:20;;;;;;;3.53;2.93;;;7.20;99.90;;;-141.84;56.30;19082.25;5463739;26;20256;-58
2024/04/19 04:11:50;;;;;;;3.30;2.90;;;7.20;99.90;;;-141.84;55.75;19145.25;5456646;26;20250;-59
2024/04/19 04:14:20;;;;;;;4.50;2.80;;;7.20;99.90;;;-141.84;56.77;19122.91;5451831;26;20319;-59
2024/04/19 04:16:53;;;;;;;3.10;2.87;;;7.20;99.90;;;-141.84;56.82;19100.53;5450636;26;20616;-58
2024/04/19 04:19:23;;;;;;;3.87;3.03;;;7.20;99.90;;;-141.84;58.04;19116.81;5441685;26;20756;-61
2024/04/19 04:21:53;;;;;;;4.17;3.00;;;7.20;99.90;;;-141.84;58.28;19086.31;5450006;26;20344;-59
2024/04/19 04:24:23;;;;;;;5.30;2.90;;;7.10;99.90;;;-141.84;57.99;19122.91;5460368;26;20818;-60
2024/04/19 04:26:53;;;;;;;3.40;2.77;;;7.20;99.90;;;-141.84;57.70;19133.06;5471848;26;20313;-59
2024/04/19 04:29:24;;;;;;;4.00;2.87;;;7.20;99.90;;;-141.84;59.06;19082.25;5459400;26;20289;-59
2024/04/19 04:31:57;;;;;;;5.13;3.37;;;7.20;99.90;;;-141.84;58.85;19090.38;5467530;26;20245;-59
2024/04/19 04:34:27;;;;;;;5.87;3.43;;;7.20;99.90;;;-141.84;59.82;19074.13;5480467;26;20632;-59
2024/04/19 04:36:57;;;;;;;4.47;3.30;;;7.10;99.90;;;-141.84;59.42;19104.59;5452336;26;20772;-58
2024/04/19 04:39:27;;;;;;;4.03;3.50;;;7.20;99.90;;;-141.84;58.54;19108.69;5459547;26;20250;-59
2024/04/19 04:41:57;;;;;;;3.73;3.37;;;7.20;99.90;;;-141.84;59.02;19106.66;5451494;26;20300;-59
2024/04/19 04:44:32;;;;;;;6.63;3.70;;;7.20;99.90;;;-141.84;58.53;19096.47;5449232;26;20327;-60
2024/04/19 04:47:05;;;;;;;4.67;3.30;;;7.20;99.90;;;-141.84;58.66;19137.13;5449525;26;20269;-59
2024/04/19 04:49:35;;;;;;;5.93;3.93;;;7.20;99.90;;;-141.84;58.39;19114.78;5470825;26;20279;-60
2024/04/19 04:52:05;;;;;;;5.40;3.87;;;7.30;99.90;;;-141.84;59.11;19106.66;5448521;26;20293;-60
2024/04/19 04:54:35;;;;;;;4.20;3.80;;;7.20;99.90;;;-141.84;59.08;19084.28;5462809;26;20278;-59
2024/04/19 04:57:07;;;;;;;6.10;3.77;;;7.20;99.90;;;-141.84;58.01;19114.78;5448343;26;20257;-59
2024/04/19 04:59:38;;;;;;;6.37;4.20;;;7.30;99.90;;;-141.84;58.75;19139.16;5455002;26;20308;-60
2024/04/19 05:02:11;;;;;;;4.87;4.10;;;7.40;99.90;;;-141.84;59.20;19122.91;5458413;26;20287;-60
2024/04/19 05:04:44;;;;;;;5.07;4.30;;;7.30;99.90;;;-141.84;58.87;19141.19;5470165;26;20334;-60
2024/04/19 05:07:15;;;;;;;4.57;4.17;;;7.30;99.90;;;-141.84;59.22;19114.78;5469135;26;20221;-59
2024/04/19 05:09:45;;;;;;;6.00;4.87;;;7.40;99.90;;;-141.84;58.19;19118.84;5462125;26;20269;-62
2024/04/19 05:12:15;;;;;;;5.43;4.10;;;7.40;99.90;;;-141.84;58.84;19116.81;5448804;26;20257;-60
2024/04/19 05:14:45;;;;;;;6.93;5.40;;;7.40;99.90;;;-141.84;57.87;19163.53;5461500;26;20300;-59
2024/04/19 05:17:17;;;;;;;5.40;4.53;;;7.50;99.90;;;-141.84;59.03;19129.00;5450042;26;21018;-59
2024/04/19 05:19:47;;;;;;;5.33;4.60;;;7.50;99.90;;;-141.84;59.68;19102.56;5449057;26;20249;-59
2024/04/19 05:22:18;;;;;;;5.60;5.00;;;7.50;99.90;;;-141.84;59.41;19118.84;5439489;26;20264;-60
2024/04/19 05:24:48;;;;;;;7.23;5.90;;;7.60;99.90;;;-141.84;58.50;19096.47;5432123;26;20239;-59
2024/04/19 05:27:18;;;;;;;8.37;5.53;;;7.60;99.90;;;-141.84;59.22;19122.91;5433738;26;20259;-60
2024/04/19 05:29:49;;;;;;;7.37;6.20;;;7.70;99.90;;;-141.84;56.75;19169.63;5431366;26;20302;-60
2024/04/19 05:32:21;;;;;;;6.83;6.00;;;7.70;99.90;;;-141.84;56.27;19198.09;5428307;26;20249;-60
2024/04/19 05:34:51;;;;;;;7.13;6.43;;;7.90;99.90;;;-141.84;55.81;19171.66;5396629;26;20613;-60
2024/04/19 05:37:21;;;;;;;7.83;6.43;;;7.90;99.90;;;-141.84;56.82;19179.78;5416299;26;20236;-60
2024/04/19 05:39:51;;;;;;;6.97;5.90;;;8.00;99.90;;;-141.84;57.05;19175.72;5416094;26;20340;-59
2024/04/19 05:42:21;;;;;;;6.63;5.77;;;8.00;99.90;;;-141.84;56.48;19173.69;5429346;26;20367;-58
2024/04/19 05:44:51;;;;;;;9.17;6.50;;;8.10;99.90;;;-141.84;56.00;19194.03;5429082;26;20247;-59
2024/04/19 05:47:25;;;;;;;8.07;5.80;;;8.10;99.90;;;-141.84;55.54;19189.97;5419576;26;20274;-58
2024/04/19 05:49:56;;;;;;;8.07;6.53;;;;;;;-141.84;57.10;19179.78;5426438;26;20321;-59
2024/04/19 05:52:27;;;;;;;7.90;6.20;;;;;;;-141.84;56.32;19204.19;5421447;26;20242;-59
2024/04/19 05:54:58;;;;;;;6.93;6.20;;;;;;;-141.84;56.25;19185.88;5421668;26;20331;-59
2024/04/19 05:57:29;;;;;;;6.77;6.07;;;;;;;-141.84;56.08;19198.09;5417351;26;20328;-59
2024/04/19 05:59:59;;;;;;;7.40;6.10;;;8.20;99.90;;;-141.84;56.80;19204.19;5416964;26;20753;-59
2024/04/19 06:02:33;;;;;;;6.93;5.77;;;;;;;-141.84;55.35;19189.97;5429944;26;20266;-58
2024/04/19 06:05:03;;;;;;;6.90;6.17;;;8.30;99.90;;;-141.84;56.71;19202.16;5423218;26;20355;-59
2024/04/19 06:07:33;;;;;;;6.40;5.60;;;8.30;99.90;;;-141.84;56.46;19187.91;5420792;26;20594;-59
2024/04/19 06:10:05;;;;;;;7.27;6.13;;;8.30;99.90;;;-141.84;55.92;19210.28;5434893;26;20253;-59
2024/04/19 06:12:36;;;;;;;7.83;6.10;;;8.30;99.90;;;-141.84;56.90;19175.72;5426288;26;20254;-59
2024/04/19 06:15:07;;;;;;;8.60;5.90;;;8.30;99.90;;;-141.84;57.26;19198.09;5433153;26;20301;-59
2024/04/19 06:17:40;;;;;;;8.73;6.23;;;8.40;99.90;;;-141.84;56.65;19210.28;5432980;26;20841;-58
2024/04/19 06:20:11;;;;;;;7.73;6.20;;;8.40;99.90;;;-141.84;57.62;19218.41;5415417;26;20254;-59
2024/04/19 06:22:41;;;;;;;7.27;6.27;;;8.50;99.90;;;-141.84;57.75;19185.88;5432804;26;20253;-59
2024/04/19 06:25:11;;;;;;;6.93;6.23;;;8.50;99.90;;;-141.84;58.49;19165.56;5442046;26;20237;-60
2024/04/19 06:27:41;;;;;;;6.63;5.93;;;8.40;99.90;;;-141.84;59.81;19175.72;5454545;26;21021;-60
2024/04/19 06:30:12;;;;;;;8.37;6.27;;;8.30;99.90;;;-141.84;59.62;19163.53;5442699;26;20296;-59
2024/04/19 06:32:45;;;;;;;7.07;6.37;;;8.30;99.90;;;-141.84;60.69;19175.72;5447661;26;20366;-59
2024/04/19 06:35:18;;;;;;;8.40;6.53;;;8.30;99.90;;;-141.84;62.77;19177.75;5455358;26;20292;-59
2024/04/19 06:37:48;;;;;;;7.83;7.03;;;8.20;99.90;;;-141.84;62.44;19167.59;5455439;26;20635;-59
2024/04/19 06:40:18;;;;;;;8.10;7.07;;;8.20;99.90;;;-141.84;64.02;19175.72;5446607;26;20252;-60
2024/04/19 06:42:48;;;;;;;6.93;6.23;;;8.10;99.90;;;-141.84;63.31;19151.34;5444588;26;20239;-58
2024/04/19 06:45:19;;;;;;;8.13;6.47;;;8.20;99.90;;;-141.84;63.53;19171.66;5443533;26;20369;-60
2024/04/19 06:47:51;;;;;;;6.90;6.30;;;8.20;99.90;;;-141.84;63.15;19173.69;5442478;26;20265;-60
2024/04/19 06:50:21;;;;;;;7.73;6.20;;;8.10;99.90;;;-141.84;63.12;19147.28;5442827;26;20336;-60
2024/04/19 06:52:51;;;;;;;7.70;6.80;;;8.00;99.90;;;-141.84;63.21;19141.19;5443873;26;20350;-60
2024/04/19 06:55:21;;;;;;;7.40;6.60;;;8.00;99.90;;;-141.84;61.27;19159.47;5443482;26;20234;-60
2024/04/19 06:57:51;;;;;;;7.00;6.37;;;8.10;99.90;;;-141.84;63.26;19143.22;5447578;26;20222;-60
2024/04/19 07:00:25;;;;;;;8.00;6.43;;;8.00;99.90;;;-141.84;61.87;19177.75;5443721;26;20261;-60
2024/04/19 07:03:17;;;;;;;7.57;6.33;;;8.10;99.90;;;-141.84;61.63;19171.66;5428468;26;20250;-60
2024/04/19 07:05:48;;;;;;;7.43;6.10;;;8.20;99.90;;;-141.84;61.09;19171.66;5443028;26;20254;-60
2024/04/19 07:08:20;;;;;;;6.77;6.13;;;8.20;99.90;;;-141.84;61.95;19183.84;5442766;26;20253;-60
2024/04/19 07:10:50;;;;;;;6.33;5.73;;;8.40;99.90;;;-141.84;59.65;19210.28;5443300;26;20732;-60
2024/04/19 07:13:20;;;;;;;6.20;5.70;;;8.60;99.90;;;-141.84;59.57;19236.69;5443312;26;20222;-60
2024/04/19 07:15:50;;;;;;;8.33;6.20;;;8.90;99.90;;;-141.84;57.61;19244.81;5443917;26;20233;-60
2024/04/19 07:18:24;;;;;;;6.20;5.60;;;9.00;99.90;;;-141.84;57.72;19257.00;5443650;26;20257;-61
2024/04/19 07:20:54;;;;;;;6.03;5.07;;;9.20;99.90;;;-141.84;57.13;19240.75;5450599;26;20279;-59
2024/04/19 07:23:25;;;;;;;6.60;5.87;;;9.20;99.90;;;-141.84;56.89;19244.81;5446432;26;20591;-58
2024/04/19 07:25:55;;;;;;;7.10;6.40;;;9.20;99.90;;;-141.84;58.09;19242.78;5416207;26;20262;-59
2024/04/19 07:28:25;;;;;;;5.97;5.37;;;9.00;99.90;;;-141.84;58.28;19242.78;5418513;26;20245;-60
2024/04/19 07:30:56;;;;;;;7.93;6.10;;;9.00;99.90;;;-141.84;58.11;19257.00;5436652;26;20293;-59
2024/04/19 07:33:29;;;;;;;6.73;5.87;;;9.10;99.90;;;-141.84;57.19;19265.13;5439272;26;20358;-59
2024/04/19 07:35:59;;;;;;;6.57;5.53;;;9.00;99.90;;;-141.84;57.17;19210.28;5415434;26;20850;-59
2024/04/19 07:38:29;;;;;;;5.90;5.40;;;8.90;99.90;;;-141.84;57.95;19232.63;5426879;26;20389;-58
2024/04/19 07:41:05;;;;;;;6.00;5.37;;;8.80;99.90;;;-141.84;58.49;19208.25;5419981;26;20833;-61
2024/04/19 07:43:35;;;;;;;5.97;5.17;;;8.80;99.90;;;-141.84;58.04;19198.09;5424534;26;20238;-59
2024/04/19 07:46:10;;;;;;;6.77;5.03;;;8.70;99.90;;;-141.84;58.97;19208.25;5427484;26;20234;-58
2024/04/19 07:48:42;;;;;;;7.00;5.70;;;8.60;99.90;;;-141.84;59.97;19163.53;5435447;26;20253;-59
2024/04/19 07:51:13;;;;;;;6.63;5.80;;;8.50;99.90;;;-141.84;60.89;19192.00;5419275;26;20739;-59
2024/04/19 07:53:43;;;;;;;5.43;4.90;;;8.40;99.90;;;-141.84;60.24;19161.50;5432941;26;20253;-58
2024/04/19 07:56:13;;;;;;;5.27;4.40;;;8.40;99.90;;;-141.84;60.66;19137.13;5433685;26;20730;-59
2024/04/19 07:58:43;;;;;;;5.43;4.53;;;8.40;99.90;;;-141.84;62.38;19175.72;5417626;26;20773;-58
2024/04/19 08:01:12;;;;;;;4.97;4.43;;;8.30;99.90;;;-141.84;63.70;19173.69;5434184;26;20269;-59
2024/04/19 08:03:48;;;;;;;5.57;5.07;;;8.20;99.90;;;-141.84;65.44;19214.34;5434604;26;20251;-59
2024/04/19 08:06:18;;;;;;;6.00;5.40;;;8.10;99.90;;;-141.84;67.49;19236.69;5422850;26;20311;-58
2024/04/19 08:08:49;;;;;;;5.83;5.00;;;8.20;99.90;;;-141.84;65.55;19175.72;5438485;26;20350;-59
2024/04/19 08:11:19;;;;;;;6.33;4.07;;;8.10;99.90;;;-141.84;66.51;19167.59;5417191;26;20255;-59
2024/04/19 08:13:50;;;;;;;4.90;4.43;;;8.10;99.90;;;-141.84;68.09;19206.22;5414791;26;20354;-59
2024/04/19 08:16:20;;;;;;;4.97;4.47;;;7.90;99.90;;;-141.84;68.83;19234.66;5410899;26;20339;-74
2024/04/19 08:18:50;;;;;;;4.60;4.20;;;7.90;99.90;;;-141.84;69.56;19244.81;5422303;26;20246;-72
2024/04/19 08:21:20;;;;;;;4.40;4.00;;;7.90;99.90;;;-141.84;68.89;19226.53;5425274;26;20258;-74
2024/04/19 08:23:50;;;;;;;4.70;4.23;;;7.90;99.90;;;-141.84;70.27;19291.56;5420568;26;20306;-71
2024/04/19 08:26:20;;;;;;;4.40;4.00;;;7.90;99.90;;;-141.84;68.87;19181.81;5430266;26;20255;-71
2024/04/19 08:28:50;;;;;;;4.43;3.87;;;7.80;99.90;;;-141.84;69.73;19222.47;5427478;26;20292;-59
2024/04/19 08:31:22;;;;;;;4.07;3.67;;;7.80;99.90;;;-141.84;69.58;19204.19;5432110;26;20234;-59
2024/04/19 08:33:55;;;;;;;4.07;3.67;;;7.80;99.90;;;-141.84;72.01;19391.13;5432841;26;20273;-60
2024/04/19 08:36:26;;;;;;;4.20;3.70;;;7.70;99.90;;;-141.84;71.75;19330.16;5406901;26;20258;-60
2024/04/19 08:38:56;;;;;;;4.80;4.30;;;7.80;99.90;;;-141.84;70.56;19234.66;5416929;26;20278;-59
2024/04/19 08:41:32;;;;;;;4.80;4.30;;;7.70;99.90;;;-141.84;73.79;19797.59;5440484;26;20230;-61
2024/04/19 08:44:03;;;;;;;4.40;4.00;;;7.80;99.90;;;-141.84;71.50;19334.22;5426700;26;20746;-60
2024/04/19 08:46:33;;;;;;;4.77;3.60;;;7.90;99.90;;;-141.84;70.92;19244.81;5439674;26;20237;-60
2024/04/19 08:49:11;;;;;;;3.80;3.50;;;7.90;99.90;;;-141.84;68.66;19118.84;5424587;26;20276;-70
2024/04/19 08:51:43;;;;;;;3.50;3.20;;;8.00;99.90;;;-141.84;69.74;19216.38;5406471;26;20288;-73
2024/04/19 08:54:36;;;;;;;3.80;3.50;;;7.90;99.90;;;-141.84;70.79;19289.53;5433568;26;20301;-68
2024/04/19 08:57:09;;;;;;;3.93;3.53;;;7.90;99.90;;;-141.84;71.35;19309.84;5426997;26;20689;-69
2024/04/19 08:59:40;;;;;;;4.07;3.13;;;8.00;99.90;;;-141.84;71.33;19269.22;5429179;26;20596;-69
2024/04/19 09:02:10;;;;;;;3.50;3.20;;;7.80;99.90;;;-141.84;72.38;19360.66;5421832;26;20625;-69
2024/04/19 09:04:42;;;;;;;3.07;2.87;;;7.70;99.90;;;-141.84;70.99;19269.22;5425167;26;20281;-70
2024/04/19 09:07:13;;;;;;;3.43;2.90;;;7.60;99.90;;;-141.84;73.52;19630.94;5431475;26;20258;-69
2024/04/19 09:09:44;;;;;;;2.90;2.70;;;7.60;99.90;;;-141.84;74.92;20336.19;5436659;26;20245;-72
2024/04/19 09:12:14;;;;;;;3.60;2.70;;;7.70;99.90;;;-141.84;74.06;19811.81;5431529;26;20251;-73
2024/04/19 09:14:45;;;;;;;3.10;2.80;;;7.60;99.90;;;-141.84;74.72;19911.41;5431942;26;20235;-73
2024/04/19 09:17:16;;;;;;;3.10;2.80;;;7.60;99.90;;;-141.84;74.78;20234.56;5424794;26;20657;-74
2024/04/19 09:19:49;;;;;;;2.60;2.40;;;7.60;99.90;;;-141.84;74.69;20090.25;5432906;26;20355;-74
2024/04/19 09:22:20;;;;;;;3.77;2.20;;;7.60;99.90;;;-141.84;75.55;21015.16;5413226;26;20437;-69
2024/04/19 09:24:52;;;;;;;2.80;2.47;;;7.60;99.90;;;-141.84;76.07;21588.50;5439217;26;20304;-71
2024/04/19 09:27:23;;;;;;;2.83;2.60;;;7.50;99.90;;;-141.84;77.35;23400.56;5386311;26;20601;-72
2024/04/19 09:29:54;;;;;;;2.97;2.70;;;7.40;99.90;;;-141.84;78.11;26310.59;5446274;26;20304;-73
2024/04/19 09:32:25;;;;;;;2.30;2.10;;;7.30;99.90;;;-141.84;78.08;26078.53;5445810;26;20599;-72
2024/04/19 09:34:58;;;;;;;1.90;1.70;;;7.30;99.90;;;-141.84;77.81;25329.50;5466773;26;20332;-74
2024/04/19 09:37:29;;;;;;;1.93;1.83;;;7.20;99.90;;;-141.84;78.62;27410.06;5455067;26;20255;-74
2024/04/19 09:40:00;;;;;;;3.13;1.80;;;7.10;99.90;;;-141.84;79.95;34180.56;5448667;26;20261;-74
2024/04/19 09:42:33;;;;;;;2.17;1.70;;;;;;;-141.84;77.98;23343.63;5447761;26;20288;-70
2024/04/19 09:45:11;;;;;;;1.73;1.63;;;7.00;99.90;;;-141.84;79.35;29986.84;5445176;26;20831;-70
2024/04/19 09:47:44;;;;;;;2.43;1.57;;;6.80;99.90;;;-141.84;79.91;34258.09;5448562;26;20230;-70
2024/04/19 09:50:21;;;;;;;3.10;1.60;;;6.80;99.90;;;-141.84;80.90;42610.09;5448798;26;20264;-70
2024/04/19 09:53:01;;;;;;;1.83;1.50;;;6.70;99.90;;;-141.84;81.48;46798.88;5440047;26;20254;-71
2024/04/19 09:55:42;;;;;;;1.50;1.40;;;6.90;99.90;;;-141.84;82.63;55452.34;5450333;26;20300;-71
2024/04/19 09:58:14;;;;;;;1.77;1.60;;;7.60;99.90;;;-141.84;82.24;53090.44;5458084;26;20257;-69
2024/04/19 10:00:46;;;;;;;1.70;1.60;;;6.80;99.90;;;-141.84;85.36;68863.09;5451680;26;20342;-71
2024/04/19 10:03:21;;;;;;;2.33;1.90;;;6.70;99.90;;;-141.84;84.60;68599.69;5448600;26;20326;-73
2024/04/19 10:05:54;;;;;;;1.47;1.37;;;6.80;99.90;;;-141.84;85.11;67809.63;5448261;26;20257;-73
2024/04/19 10:08:26;;;;;;;1.70;1.60;;;6.70;99.90;;;-141.84;87.66;78356.72;5446761;26;20307;-79
2024/04/19 10:10:58;;;;;;;1.60;1.50;;;6.40;99.90;;;-141.84;89.18;85491.75;5439250;26;20253;-59
2024/04/19 10:13:30;;;;;;;2.90;1.60;;;6.40;99.90;;;-141.84;91.13;91314.81;5437684;26;20343;-78
2024/04/19 10:16:02;;;;;;;1.80;1.70;;;;;;;-141.84;94.59;100861.66;5443489;26;20364;-79
2024/04/19 10:18:38;;;;;;;1.80;1.70;;;;;;;-141.84;95.58;103517.56;5435375;26;20269;-79
2024/04/19 10:21:12;;;;;;;1.40;1.30;;;;;;;-141.84;90.46;89990.66;5443598;26;20257;-77
2024/04/19 10:23:42;;;;;;;1.93;1.40;;;6.40;99.90;;;-141.84;90.67;90520.28;5443819;26;20284;-78
2024/04/19 10:26:15;;;;;;;2.10;1.33;;;;;;;-141.84;91.30;92109.53;5431514;26;20227;-77
2024/04/19 10:28:57;;;;;;;1.97;1.10;;;;;;;-141.84;90.92;90785.09;5417062;26;20274;-78
2024/04/19 10:31:27;;;;;;;1.33;1.20;;;7.00;99.90;;;-141.84;89.82;85756.25;5413620;26;20250;-77
2024/04/19 10:33:57;;;;;;;1.63;1.53;;;6.20;99.90;;;-141.84;91.36;91579.72;5419920;26;20323;-77